Nearby METAR Reports

 

EIDW - Dublin Airport, Ireland
Distance from station: ENE 79km
Updated: 26/09/2017 10:00
Mostly cloudy
Mostly cloudy
 Wind from SSE
Wind: SSE 11 km/h
Temperature: 12°C
Dew Point: 11°C
Humidity: 94%
Barometer: 1021 hPa
Clouds: Mostly cloudy
Visibility: 10 km
Cloud details: Few Clouds 305 m
Mostly cloudy 4877 m
2017/09/26 09:00 EIDW 260900Z 15006KT 100V190 9999 FEW010 BKN160 12/11 Q1021 NOSIG
EIME - Casement (mil), Ireland
Distance from station: ENE 62km
Updated: 26/09/2017 10:00
Mostly cloudy
Mostly cloudy
 Wind from varies
Wind: varies 4 km/h
Temperature: 12°C
Dew Point: 10°C
Humidity: 88%
Barometer: 1020 hPa
Clouds: Mostly cloudy
Visibility: 10 km
Cloud details: Few Clouds 366 m
Mostly cloudy 5182 m
2017/09/26 09:00 EIME 260900Z VRB02KT 9999 FEW012 BKN170 12/10 Q1020
EIWF - Waterford Arpt, Ireland
Distance from station: S 111km
Updated: 26/09/2017 10:00
Mostly cloudy
Mostly cloudy
 Wind from SSE
Wind: SSE 17 km/h
Temperature: 14°C
Dew Point: 13°C
Humidity: 94%
Barometer: 1021 hPa
Clouds: Mostly cloudy
Visibility: 10 km
Cloud details: Partly cloudy 274 m
Mostly cloudy 610 m
2017/09/26 09:00 EIWF 260900Z 16009KT 9999 SCT009 BKN020 14/13 Q1021
 
EINN - Shannon Airport, Ireland
Distance from station: WSW 117km
Updated: 26/09/2017 10:00
Mostly cloudy
Mostly cloudy
 Wind from SE
Wind: SE 28 km/h
Temperature: 15°C
Dew Point: 12°C
Humidity: 82%
Barometer: 1017 hPa
Clouds: Mostly cloudy
Visibility: 10 km
Cloud details: Few Clouds 244 m
Mostly cloudy 5486 m
Mostly cloudy 7620 m
2017/09/26 09:00 EINN 260900Z 14015KT 9999 FEW008 BKN180 BKN250 15/12 Q1017 NOSIG
EIKN - Connaught Apt, Ireland
Distance from station: NW 127km
Updated: 26/09/2017 10:00
Mostly cloudy
Mostly cloudy
 Wind from SSE
Wind: SSE 19 km/h
Temperature: 12°C
Dew Point: 11°C
Humidity: 94%
Barometer: 1017 hPa
Clouds: Mostly cloudy
Visibility: 10 km
Cloud details: Partly cloudy 183 m
Mostly cloudy 3962 m
2017/09/26 09:00 EIKN 260900Z 15010KT 110V190 9999 SCT006 BKN130 12/11 Q1017 NOSIG
EISG - Sligo Arpt, Ireland
Distance from station: NNW 148km
Updated: 26/09/2017 09:30
Clear
Clear
 Wind from SE
Wind: SE 28 km/h
Temperature: 13°C
Dew Point: 10°C
Humidity: 82%
Barometer: 1016 hPa
Summary: Clear
Visibility: greater than 10 km
2017/09/26 08:30 EISG 260830Z 14015KT CAVOK 13/10 Q1016
 
EICK - Cork Arpt/Corcai, Ireland
Distance from station: SSW 165km
Updated: 26/09/2017 10:00
Mostly cloudy
Mostly cloudy
 Wind from SSE
Wind: SSE 22 km/h
Temperature: 14°C
Dew Point: 13°C
Humidity: 94%
Barometer: 1019 hPa
Clouds: Mostly cloudy
Visibility: 10 km
Cloud details: Partly cloudy 152 m
Mostly cloudy 213 m
Mostly cloudy 457 m
2017/09/26 09:00 EICK 260900Z 16012KT 9999 SCT005 BKN007 BKN015 14/13 Q1019 NOSIG
EGAA - Belfast/Aldergro, United Kingdom
Distance from station: NNE 179km
Updated: 26/09/2017 09:20
Few Clouds
Few Clouds
 Wind from SE
Wind: SE 13 km/h
Temperature: 12°C
Dew Point: 11°C
Humidity: 94%
Barometer: 1021 hPa
Clouds: Few Clouds
Visibility: 10 km
Cloud details: Few Clouds 183 m
2017/09/26 08:20 EGAA 260820Z 13007KT 9999 FEW006 12/11 Q1021
EIKY - Kerry Arpt, Ireland
Distance from station: SW 182km
Updated: 26/09/2017 10:00
Mostly cloudy
Mostly cloudy
 Wind from SE
Wind: SE 17 km/h
Temperature: 16°C
Dew Point: 12°C
Humidity: 77%
Barometer: 1017 hPa
Clouds: Mostly cloudy
Visibility: 10 km
Cloud details: Mostly cloudy 884 m
2017/09/26 09:00 EIKY 260900Z 14009KT 9999 BKN029 16/12 Q1017
 
EGAC - Belfast Harbour, United Kingdom
Distance from station: NNE 188km
Updated: 26/09/2017 09:50
Mostly cloudy
Mostly cloudy
 Wind from SSE
Wind: SSE 11 km/h
Temperature: 13°C
Dew Point: 12°C
Humidity: 94%
Barometer: 1021 hPa
Clouds: Mostly cloudy
Visibility: 10 km
Cloud details: Partly cloudy 274 m
Mostly cloudy 335 m
2017/09/26 08:50 EGAC 260850Z 15006KT 9999 SCT009 BKN011 13/12 Q1021
EGOV - Valley Raf, United Kingdom
Distance from station: E 188km
Updated: 26/09/2017 09:50
Mist, Overcast
Mist, Overcast
 Wind from ESE
Wind: ESE 7 km/h
Temperature: 14°C
Dew Point: 13°C
Humidity: 94%
Barometer: 1022 hPa
Summary: Mist
Clouds: Overcast
Visibility: 2 km
Cloud details: Overcast 30 m
2017/09/26 08:50 EGOV 260850Z 11004KT 1600 BR OVC001 14/13 Q1022 RED BECMG 9999 NSW BKN004 YLO2
EGNS - Isle Of Man/Rona, United Kingdom
Distance from station: ENE 207km
Updated: 26/09/2017 09:50
Mostly cloudy
Mostly cloudy
 Wind from ESE
Wind: ESE 7 km/h
Temperature: 14°C
Dew Point: 14°C
Humidity: 100%
Barometer: 1022 hPa
Clouds: Mostly cloudy
Visibility: 6 km
Cloud details: Few Clouds 91 m
Mostly cloudy 122 m
Mostly cloudy 762 m
2017/09/26 08:50 EGNS 260850Z 11004KT 6000 FEW003 BKN004 BKN025 14/14 Q1022 BECMG SCT004 BKN009